Time;durP1;ratioP1;P1;durP2;ratioP2;P2;SDS_P1;SDS_P2;PMS_P1;PMS_P2;Temp;Humidity;BMP_temperature;BMP_pressure;BME280_temperature;BME280_humidity;BME280_pressure;Samples;Min_cycle;Max_cycle;Signal;HPM_P1;HPM_P2
2023/09/14 00:00:04;;;;;;;4.70;2.87;;;19.10;1.00;;;;;;4992812;28;20310;-72
2023/09/14 00:02:29;;;;;;;4.90;2.77;;;19.10;1.00;;;;;;4987217;28;20179;-75
2023/09/14 00:04:55;;;;;;;4.50;2.77;;;19.10;1.00;;;;;;4992408;28;20446;-74
2023/09/14 00:07:20;;;;;;;5.70;3.10;;;19.00;1.00;;;;;;4992222;28;20342;-74
2023/09/14 00:09:46;;;;;;;4.63;2.90;;;18.90;1.00;;;;;;4992898;28;20274;-74
2023/09/14 00:12:11;;;;;;;4.50;2.87;;;18.90;1.00;;;;;;4992406;28;20213;-74
2023/09/14 00:14:37;;;;;;;4.03;2.80;;;18.80;1.00;;;;;;4992478;28;20241;-74
2023/09/14 00:17:02;;;;;;;5.57;2.87;;;18.80;1.00;;;;;;4992480;28;20692;-74
2023/09/14 00:19:28;;;;;;;4.00;2.90;;;18.70;1.00;;;;;;4990878;28;20191;-75
2023/09/14 00:21:53;;;;;;;8.00;2.97;;;18.70;1.00;;;;;;4992412;28;20207;-73
2023/09/14 00:24:19;;;;;;;6.20;2.73;;;18.60;1.00;;;;;;4992016;28;20461;-75
2023/09/14 00:26:44;;;;;;;5.00;3.00;;;18.60;1.00;;;;;;4992484;28;20194;-73
2023/09/14 00:29:10;;;;;;;5.50;2.80;;;18.60;1.00;;;;;;4991988;28;20278;-73
2023/09/14 00:31:38;;;;;;;3.60;2.63;;;18.50;1.00;;;;;;4992328;28;20255;-75
2023/09/14 00:34:04;;;;;;;3.63;2.47;;;18.50;1.00;;;;;;4991772;28;20267;-74
2023/09/14 00:36:30;;;;;;;4.83;2.67;;;18.50;1.00;;;;;;4991990;28;20513;-74
2023/09/14 00:38:55;;;;;;;5.53;2.80;;;18.40;1.00;;;;;;4992257;28;20229;-74
2023/09/14 00:41:21;;;;;;;5.17;2.80;;;18.30;1.00;;;;;;4991857;28;20751;-74
2023/09/14 00:43:46;;;;;;;4.00;2.50;;;18.40;1.00;;;;;;4992166;28;20230;-73
2023/09/14 00:46:12;;;;;;;4.20;2.57;;;18.30;1.00;;;;;;4991044;28;20199;-76
2023/09/14 00:48:38;;;;;;;6.43;2.97;;;18.30;1.00;;;;;;4992222;28;20194;-73
2023/09/14 00:51:04;;;;;;;7.57;2.80;;;18.30;1.00;;;;;;4992130;28;20179;-74
2023/09/14 00:53:30;;;;;;;4.97;2.60;;;18.20;1.00;;;;;;4991636;28;20179;-74
2023/09/14 00:55:57;;;;;;;12.43;3.20;;;18.20;1.00;;;;;;4990963;28;20253;-75
2023/09/14 00:58:22;;;;;;;9.43;3.20;;;18.10;1.00;;;;;;4991558;28;20243;-74
2023/09/14 01:00:48;;;;;;;5.07;2.60;;;18.10;1.00;;;;;;4991564;28;20466;-74
2023/09/14 01:03:15;;;;;;;3.87;2.63;;;18.00;1.00;;;;;;4991328;28;20187;-74
2023/09/14 01:05:41;;;;;;;6.10;3.00;;;18.00;1.00;;;;;;4991659;28;20445;-72
2023/09/14 01:08:07;;;;;;;6.00;2.80;;;17.90;1.00;;;;;;4992178;28;20419;-74
2023/09/14 01:10:32;;;;;;;4.50;2.50;;;17.90;1.00;;;;;;4991510;28;20860;-75
2023/09/14 01:12:58;;;;;;;5.33;2.97;;;17.90;1.00;;;;;;4991634;28;20186;-75
2023/09/14 01:15:39;;;;;;;4.67;2.70;;;17.80;1.00;;;;;;4990812;28;20211;-76
2023/09/14 01:18:26;;;;;;;5.00;2.87;;;17.80;1.00;;;;;;4991709;28;20203;-74
2023/09/14 01:21:16;;;;;;;6.30;2.57;;;17.70;1.00;;;;;;4991461;28;20446;-75
2023/09/14 01:24:05;;;;;;;5.83;2.73;;;17.70;1.00;;;;;;4991759;28;20547;-73
2023/09/14 01:26:32;;;;;;;3.90;2.63;;;17.70;1.00;;;;;;4991029;28;20422;-74
2023/09/14 01:28:59;;;;;;;4.73;2.43;;;17.70;1.00;;;;;;4991277;28;21005;-73
2023/09/14 01:31:24;;;;;;;4.33;2.57;;;17.60;1.00;;;;;;4990985;28;20521;-75
2023/09/14 01:33:50;;;;;;;3.80;2.90;;;17.60;1.00;;;;;;4991024;28;20553;-74
2023/09/14 01:36:28;;;;;;;3.27;2.50;;;17.40;1.00;;;;;;4990390;28;20630;-74
2023/09/14 01:38:54;;;;;;;3.60;2.37;;;17.30;1.00;;;;;;4991211;28;20285;-73
2023/09/14 01:41:21;;;;;;;3.27;2.53;;;17.30;1.00;;;;;;4990624;28;21001;-74
2023/09/14 01:43:51;;;;;;;5.27;2.60;;;17.30;1.00;;;;;;4991384;28;20423;-74
2023/09/14 01:46:17;;;;;;;4.00;3.00;;;17.30;1.00;;;;;;4990200;28;20439;-74
2023/09/14 01:48:44;;;;;;;8.70;2.93;;;17.30;1.00;;;;;;4990902;28;20672;-74
2023/09/14 01:51:10;;;;;;;4.53;2.70;;;17.20;1.00;;;;;;4991317;28;20530;-74
2023/09/14 01:53:35;;;;;;;3.70;2.43;;;17.20;1.00;;;;;;4990491;28;20454;-75
2023/09/14 01:56:01;;;;;;;5.50;2.90;;;17.00;1.00;;;;;;4990382;28;20681;-74
2023/09/14 01:58:26;;;;;;;4.60;2.83;;;16.90;1.00;;;;;;4989783;28;20206;-73
2023/09/14 02:00:52;;;;;;;4.60;2.30;;;16.90;1.00;;;;;;4991081;28;20266;-74
2023/09/14 02:03:17;;;;;;;5.27;2.73;;;18.60;1.00;;;;;;4982886;28;20190;-72
2023/09/14 02:05:43;;;;;;;3.90;2.83;;;16.90;1.00;;;;;;4990667;28;20306;-75
2023/09/14 02:08:09;;;;;;;7.63;2.80;;;16.80;1.00;;;;;;4990990;28;20183;-75
2023/09/14 02:10:34;;;;;;;7.53;2.93;;;16.80;1.00;;;;;;4990303;28;20191;-73
2023/09/14 02:13:00;;;;;;;5.90;2.90;;;16.70;1.00;;;;;;4990776;28;20720;-74
2023/09/14 02:15:25;;;;;;;6.17;2.87;;;16.60;1.00;;;;;;4990069;28;20293;-74
2023/09/14 02:17:51;;;;;;;6.50;2.70;;;16.50;1.00;;;;;;4990158;28;20207;-74
2023/09/14 02:20:17;;;;;;;4.77;2.50;;;16.50;1.00;;;;;;4990148;28;20266;-74
2023/09/14 02:22:42;;;;;;;4.53;2.57;;;16.60;1.00;;;;;;4990291;28;20513;-76
2023/09/14 02:25:08;;;;;;;5.30;2.63;;;16.60;1.00;;;;;;4990098;28;20226;-74
2023/09/14 02:27:34;;;;;;;5.90;2.80;;;16.50;1.00;;;;;;4989790;28;20253;-74
2023/09/14 02:30:00;;;;;;;6.33;3.17;;;16.50;1.00;;;;;;4990291;28;20278;-74
2023/09/14 02:32:26;;;;;;;3.60;2.33;;;16.40;1.00;;;;;;4989606;28;20514;-75
2023/09/14 02:34:51;;;;;;;7.83;3.17;;;16.30;1.00;;;;;;4989703;28;20712;-75
2023/09/14 02:37:17;;;;;;;3.30;2.47;;;16.30;1.00;;;;;;4989738;28;20641;-73
2023/09/14 02:39:42;;;;;;;6.43;2.47;;;16.20;1.00;;;;;;4990176;28;20522;-74
2023/09/14 02:42:08;;;;;;;3.50;2.80;;;16.20;1.00;;;;;;4989983;28;20187;-74
2023/09/14 02:44:35;;;;;;;3.77;2.70;;;16.20;1.00;;;;;;4989481;28;20207;-74
2023/09/14 02:47:01;;;;;;;5.97;2.63;;;16.10;1.00;;;;;;4989372;28;20206;-74
2023/09/14 02:49:26;;;;;;;4.70;2.70;;;16.00;1.00;;;;;;4989692;28;20430;-74
2023/09/14 02:51:52;;;;;;;3.50;2.63;;;16.00;1.00;;;;;;4989960;28;20249;-73
2023/09/14 02:54:20;;;;;;;3.97;2.50;;;16.00;1.00;;;;;;4989624;28;20183;-73
2023/09/14 02:56:47;;;;;;;4.27;2.53;;;16.00;1.00;;;;;;4983693;28;20179;-74
2023/09/14 02:59:15;;;;;;;3.10;2.40;;;15.90;1.00;;;;;;4990071;28;20441;-74
2023/09/14 03:01:43;;;;;;;3.70;2.50;;;15.90;1.00;;;;;;4989102;28;20430;-76
2023/09/14 03:04:08;;;;;;;6.17;3.00;;;15.80;1.00;;;;;;4989460;28;20496;-73
2023/09/14 03:06:34;;;;;;;5.90;3.13;;;15.80;1.00;;;;;;4989485;28;20458;-74
2023/09/14 03:08:59;;;;;;;6.37;2.80;;;15.70;1.00;;;;;;4989970;28;20191;-74
2023/09/14 03:11:25;;;;;;;4.27;2.73;;;15.70;1.00;;;;;;4993495;28;20202;-75
2023/09/14 03:13:51;;;;;;;4.83;2.63;;;15.70;1.00;;;;;;4993849;28;20752;-75
2023/09/14 03:16:16;;;;;;;5.27;2.60;;;15.60;1.00;;;;;;4993479;28;20207;-75
2023/09/14 03:18:42;;;;;;;3.80;2.80;;;15.70;1.00;;;;;;4993342;28;20214;-73
2023/09/14 03:21:24;;;;;;;9.37;2.90;;;15.70;1.00;;;;;;4993656;28;20190;-74
2023/09/14 03:23:50;;;;;;;4.33;2.80;;;15.70;1.00;;;;;;4986387;28;20233;-74
2023/09/14 03:26:16;;;;;;;5.27;3.13;;;15.60;1.00;;;;;;4993210;28;20434;-77
2023/09/14 03:28:42;;;;;;;3.90;2.63;;;15.50;1.00;;;;;;4993116;28;20266;-76
2023/09/14 03:31:09;;;;;;;6.40;2.80;;;15.20;1.00;;;;;;4975996;28;20538;-73
2023/09/14 03:33:34;;;;;;;8.17;2.93;;;15.30;1.00;;;;;;4992912;28;20198;-74
2023/09/14 03:36:01;;;;;;;5.60;3.03;;;15.30;1.00;;;;;;4993527;28;20458;-74
2023/09/14 03:38:28;;;;;;;4.60;2.97;;;15.30;1.00;;;;;;4993028;28;20203;-76
2023/09/14 03:40:54;;;;;;;4.57;2.70;;;15.30;1.00;;;;;;4993030;28;20513;-74
2023/09/14 03:43:20;;;;;;;5.33;3.00;;;15.20;1.00;;;;;;4993197;28;20426;-76
2023/09/14 03:45:46;;;;;;;5.90;3.07;;;15.20;1.00;;;;;;4992598;28;20307;-74
2023/09/14 03:48:12;;;;;;;6.07;3.80;;;15.10;1.00;;;;;;4993423;28;20526;-75
2023/09/14 03:50:38;;;;;;;4.53;2.80;;;15.00;1.00;;;;;;4992781;28;20190;-74
2023/09/14 03:53:03;;;;;;;4.03;2.60;;;13.00;1.00;;;;;;4993275;28;20434;-75
2023/09/14 03:55:29;;;;;;;4.00;2.93;;;15.10;1.00;;;;;;4992505;28;20715;-76
2023/09/14 03:57:55;;;;;;;8.17;2.77;;;15.00;1.00;;;;;;4992741;28;20211;-74
2023/09/14 04:00:21;;;;;;;5.63;2.93;;;15.10;1.00;;;;;;4993075;28;20517;-74
2023/09/14 04:02:46;;;;;;;5.10;3.10;;;15.10;1.00;;;;;;4992448;28;20234;-74
2023/09/14 04:05:16;;;;;;;4.80;3.00;;;15.10;1.00;;;;;;4992646;28;20226;-75
2023/09/14 04:07:45;;;;;;;4.40;3.27;;;15.10;1.00;;;;;;4992588;28;20225;-75
2023/09/14 04:10:11;;;;;;;5.13;3.13;;;15.00;1.00;;;;;;4992865;28;20437;-73
2023/09/14 04:12:41;;;;;;;10.53;3.27;;;15.00;1.00;;;;;;4992389;28;20438;-74
2023/09/14 04:15:08;;;;;;;3.90;2.90;;;14.90;1.00;;;;;;4992533;28;20499;-73
2023/09/14 04:17:34;;;;;;;3.80;2.80;;;15.00;1.00;;;;;;4992480;28;20469;-72
2023/09/14 04:20:01;;;;;;;6.20;3.40;;;15.00;1.00;;;;;;4975247;28;20449;-74
2023/09/14 04:22:26;;;;;;;5.13;2.80;;;14.90;1.00;;;;;;4991541;28;20418;-74
2023/09/14 04:24:52;;;;;;;4.33;2.67;;;14.80;1.00;;;;;;4974773;28;20453;-74
2023/09/14 04:27:17;;;;;;;5.20;2.90;;;14.90;1.00;;;;;;4992737;28;20522;-74
2023/09/14 04:29:43;;;;;;;5.50;3.37;;;14.90;1.00;;;;;;4992152;28;20221;-72
2023/09/14 04:32:09;;;;;;;9.50;2.83;;;15.00;1.00;;;;;;4992457;28;20235;-73
2023/09/14 04:34:34;;;;;;;5.60;3.30;;;14.90;1.00;;;;;;4991481;28;20245;-74
2023/09/14 04:37:00;;;;;;;4.67;2.93;;;15.90;1.00;;;;;;4992282;28;20661;-74
2023/09/14 04:39:26;;;;;;;3.77;2.90;;;14.80;1.00;;;;;;4992366;28;20187;-74
2023/09/14 04:41:52;;;;;;;5.87;3.60;;;14.70;1.00;;;;;;4991894;28;20261;-74
2023/09/14 04:44:17;;;;;;;5.90;3.43;;;14.70;1.00;;;;;;4992185;28;20948;-74
2023/09/14 04:46:43;;;;;;;6.37;3.30;;;14.70;1.00;;;;;;4991931;28;20183;-74
2023/09/14 04:49:08;;;;;;;7.67;3.43;;;14.70;1.00;;;;;;4992230;28;20191;-74
2023/09/14 04:51:34;;;;;;;7.33;3.80;;;14.70;1.00;;;;;;4991477;28;20242;-75
2023/09/14 04:53:59;;;;;;;5.40;3.27;;;14.70;1.00;;;;;;4991730;28;20186;-70
2023/09/14 04:56:25;;;;;;;12.43;3.40;;;14.70;1.00;;;;;;4991339;28;20258;-74
2023/09/14 04:58:51;;;;;;;4.57;3.30;;;14.70;1.00;;;;;;4991607;28;20211;-75
2023/09/14 05:01:17;;;;;;;5.23;3.40;;;14.70;1.00;;;;;;4991831;28;20184;-77
2023/09/14 05:03:42;;;;;;;6.50;3.30;;;14.70;1.00;;;;;;4991281;28;20179;-74
2023/09/14 05:06:08;;;;;;;4.57;3.27;;;14.70;1.00;;;;;;4991528;28;20442;-74
2023/09/14 05:08:34;;;;;;;12.83;3.57;;;14.60;1.00;;;;;;4991331;28;20190;-73
2023/09/14 05:11:01;;;;;;;6.00;3.70;;;14.50;1.00;;;;;;4991668;28;20194;-74
2023/09/14 05:13:27;;;;;;;7.07;3.80;;;14.40;1.00;;;;;;4991746;28;20190;-76
2023/09/14 05:15:52;;;;;;;5.53;3.23;;;14.40;1.00;;;;;;4991319;28;20887;-74
2023/09/14 05:18:18;;;;;;;9.27;3.60;;;14.40;1.00;;;;;;4991922;28;20735;-74
2023/09/14 05:20:44;;;;;;;7.00;3.20;;;15.00;1.00;;;;;;4991238;28;20657;-75
2023/09/14 05:23:09;;;;;;;6.03;3.23;;;14.30;1.00;;;;;;4991511;28;20515;-74
2023/09/14 05:25:35;;;;;;;9.23;3.47;;;14.40;1.00;;;;;;4990586;28;20453;-73
2023/09/14 05:28:01;;;;;;;5.40;3.40;;;14.30;1.00;;;;;;4973991;28;20191;-73
2023/09/14 05:30:26;;;;;;;6.20;3.40;;;14.30;1.00;;;;;;4991338;28;20266;-73
2023/09/14 05:32:52;;;;;;;5.10;3.30;;;14.30;1.00;;;;;;4989623;28;20199;-72
2023/09/14 05:35:18;;;;;;;7.63;3.40;;;14.40;1.00;;;;;;4990909;28;20199;-78
2023/09/14 05:37:44;;;;;;;4.43;3.10;;;14.40;1.00;;;;;;4990816;28;20226;-74
2023/09/14 05:40:11;;;;;;;6.20;3.27;;;14.40;1.00;;;;;;4991208;28;20834;-75
2023/09/14 05:42:37;;;;;;;6.07;3.40;;;14.50;1.00;;;;;;4990725;28;20211;-74
2023/09/14 05:45:05;;;;;;;6.10;3.50;;;14.50;1.00;;;;;;4990854;28;20524;-75
2023/09/14 05:47:31;;;;;;;5.80;3.73;;;14.50;1.00;;;;;;4991027;28;20239;-74
2023/09/14 05:49:56;;;;;;;6.80;3.87;;;14.50;1.00;;;;;;4990791;28;20517;-76
2023/09/14 05:52:22;;;;;;;7.47;3.77;;;14.50;1.00;;;;;;4990721;28;20650;-74
2023/09/14 05:54:47;;;;;;;6.73;3.90;;;14.60;1.00;;;;;;4990128;28;20294;-74
2023/09/14 05:57:14;;;;;;;12.67;4.40;;;14.60;1.00;;;;;;4973143;28;20313;-75
2023/09/14 05:59:40;;;;;;;7.97;4.70;;;14.70;1.00;;;;;;4990490;28;20179;-74
2023/09/14 06:02:06;;;;;;;11.87;5.90;;;14.70;1.00;;;;;;4988740;28;20522;-75
2023/09/14 06:04:32;;;;;;;10.87;5.33;;;14.70;1.00;;;;;;4990378;28;20451;-75
2023/09/14 06:06:58;;;;;;;11.10;5.57;;;14.70;1.00;;;;;;4990183;28;20429;-74
2023/09/14 06:09:26;;;;;;;9.60;5.03;;;14.80;1.00;;;;;;4991034;28;20190;-76
2023/09/14 06:11:52;;;;;;;8.73;4.77;;;14.90;1.00;;;;;;4990295;28;20198;-74
2023/09/14 06:14:17;;;;;;;9.00;4.27;;;15.30;1.00;;;;;;4990302;28;20433;-75
2023/09/14 06:16:43;;;;;;;5.73;3.60;;;15.40;1.00;;;;;;4990118;28;20665;-74
2023/09/14 06:19:08;;;;;;;9.40;4.00;;;15.70;1.00;;;;;;4990524;28;20307;-75
2023/09/14 06:21:34;;;;;;;7.40;4.10;;;16.20;1.00;;;;;;4990256;28;20255;-74
2023/09/14 06:24:00;;;;;;;6.27;3.63;;;16.70;1.00;;;;;;4989824;28;20190;-72
2023/09/14 06:26:29;;;;;;;12.57;4.53;;;17.10;1.00;;;;;;4990271;28;20209;-73
2023/09/14 06:28:58;;;;;;;6.50;4.60;;;19.30;1.00;;;;;;4989854;28;20287;-73
2023/09/14 06:31:23;;;;;;;11.37;4.07;;;18.20;1.00;;;;;;4990247;28;20442;-73
2023/09/14 06:33:49;;;;;;;7.57;4.10;;;18.80;1.00;;;;;;4989606;28;20464;-74
2023/09/14 06:36:18;;;;;;;9.83;4.27;;;19.30;1.00;;;;;;4972128;28;20289;-73
2023/09/14 06:38:48;;;;;;;8.70;4.80;;;19.90;1.00;;;;;;4989932;28;20570;-74
2023/09/14 06:41:15;;;;;;;6.53;3.93;;;20.30;1.00;;;;;;4990410;28;20935;-74
2023/09/14 06:43:42;;;;;;;7.60;4.40;;;20.20;1.00;;;;;;4990563;28;20421;-73
2023/09/14 06:46:09;;;;;;;7.87;4.30;;;20.00;1.00;;;;;;4989892;28;20437;-74
2023/09/14 06:48:35;;;;;;;8.10;4.43;;;19.50;1.00;;;;;;4990466;28;20495;-73
2023/09/14 06:51:01;;;;;;;10.70;4.50;;;19.20;1.00;;;;;;4989922;28;20430;-73
2023/09/14 06:53:26;;;;;;;7.83;4.40;;;19.20;1.00;;;;;;4989953;28;20217;-74
2023/09/14 06:55:52;;;;;;;22.63;10.83;;;19.80;1.00;;;;;;4989482;28;20301;-72
2023/09/14 06:58:17;;;;;;;9.83;4.30;;;20.00;1.00;;;;;;4990270;28;20205;-76
2023/09/14 07:00:43;;;;;;;12.33;4.93;;;19.90;1.00;;;;;;4989553;28;20171;-73
2023/09/14 07:03:09;;;;;;;7.60;4.73;;;19.40;1.00;;;;;;4987484;28;20261;-74
2023/09/14 07:05:35;;;;;;;14.43;5.20;;;19.00;1.00;;;;;;4989736;28;20629;-73
2023/09/14 07:08:01;;;;;;;7.83;4.23;;;18.60;1.00;;;;;;4989985;28;20191;-74
2023/09/14 07:10:27;;;;;;;7.87;4.90;;;18.40;1.00;;;;;;4990257;28;20923;-74
2023/09/14 07:12:52;;;;;;;9.10;4.73;;;18.50;1.00;;;;;;4989779;28;20429;-77
2023/09/14 07:15:18;;;;;;;8.60;3.93;;;19.20;1.00;;;;;;4989975;28;20211;-74
2023/09/14 07:17:43;;;;;;;6.87;3.87;;;20.10;1.00;;;;;;4989979;28;20198;-74
2023/09/14 07:20:09;;;;;;;5.67;3.80;;;21.20;1.00;;;;;;4990099;28;20189;-74
2023/09/14 07:22:35;;;;;;;6.90;3.83;;;22.00;1.00;;;;;;4990040;28;20564;-74
2023/09/14 07:25:02;;;;;;;6.07;4.00;;;22.90;1.00;;;;;;4989083;28;20459;-76
2023/09/14 07:27:27;;;;;;;6.10;3.80;;;23.40;1.00;;;;;;4972312;28;20683;-75
2023/09/14 07:29:53;;;;;;;6.20;4.13;;;24.20;1.00;;;;;;4989666;28;20445;-74
2023/09/14 07:32:19;;;;;;;4.97;3.57;;;24.60;1.00;;;;;;4989843;28;20186;-75
2023/09/14 07:34:45;;;;;;;6.80;3.83;;;25.20;1.00;;;;;;4989025;28;20213;-72
2023/09/14 07:37:10;;;;;;;5.43;3.30;;;25.80;1.00;;;;;;4989918;28;20179;-75
2023/09/14 07:39:36;;;;;;;9.03;3.60;;;26.60;1.00;;;;;;4990186;28;20182;-74
2023/09/14 07:42:01;;;;;;;5.40;3.75;;;26.70;1.00;;;;;;4989599;28;20194;-75
2023/09/14 07:44:27;;;;;;;6.40;3.60;;;26.50;1.00;;;;;;4990127;28;20215;-74
2023/09/14 07:46:52;;;;;;;6.07;3.72;;;26.60;1.00;;;;;;4989501;28;20707;-75
2023/09/14 07:49:18;;;;;;;8.48;4.00;;;27.40;1.00;;;;;;4989819;28;20639;-75
2023/09/14 07:51:43;;;;;;;9.00;3.70;;;27.30;1.00;;;;;;4989835;28;20194;-75
2023/09/14 07:54:09;;;;;;;4.82;3.30;;;27.00;1.00;;;;;;4989235;28;20175;-76
2023/09/14 07:56:34;;;;;;;6.53;3.75;;;27.10;1.00;;;;;;4990605;28;20171;-76
2023/09/14 07:59:00;;;;;;;5.30;3.13;;;27.70;1.00;;;;;;4993100;28;20589;-74
2023/09/14 08:01:25;;;;;;;7.47;3.78;;;28.30;1.00;;;;;;4992970;28;20186;-75
2023/09/14 08:03:51;;;;;;;7.35;3.65;;;28.80;1.00;;;;;;4990131;28;20174;-75
2023/09/14 08:06:18;;;;;;;6.45;3.33;;;28.90;1.00;;;;;;4993000;28;20767;-74
2023/09/14 08:08:45;;;;;;;7.43;3.80;;;28.60;1.00;;;;;;4993445;28;20269;-75
2023/09/14 08:11:11;;;;;;;8.05;3.70;;;28.80;1.00;;;;;;4992798;28;20224;-72
2023/09/14 08:13:36;;;;;;;6.63;3.47;;;29.20;1.00;;;;;;4993269;28;20600;-75
2023/09/14 08:16:03;;;;;;;6.18;3.92;;;29.70;1.00;;;;;;4992483;28;20229;-75
2023/09/14 08:18:29;;;;;;;5.68;3.63;;;29.70;1.00;;;;;;4993162;28;20304;-75
2023/09/14 08:20:55;;;;;;;5.63;3.67;;;29.60;1.00;;;;;;4992698;28;20758;-75
2023/09/14 08:23:20;;;;;;;6.05;3.63;;;30.30;1.00;;;;;;4993019;28;20182;-75
2023/09/14 08:25:47;;;;;;;8.73;3.53;;;30.80;1.00;;;;;;4992719;28;20213;-76
2023/09/14 08:28:14;;;;;;;5.93;3.30;;;31.20;1.00;;;;;;4992468;28;20182;-75
2023/09/14 08:30:40;;;;;;;9.35;3.97;;;31.40;1.00;;;;;;4993105;28;20273;-75
2023/09/14 08:33:07;;;;;;;8.30;3.72;;;31.60;1.00;;;;;;4992343;28;20641;-77
2023/09/14 08:35:34;;;;;;;6.00;3.42;;;31.80;1.00;;;;;;4992564;28;20203;-75
2023/09/14 08:38:03;;;;;;;5.75;3.97;;;31.90;1.00;;;;;;4992435;28;20202;-75
2023/09/14 08:40:29;;;;;;;5.13;3.40;;;32.00;1.00;;;;;;4992851;28;20221;-75
2023/09/14 08:42:56;;;;;;;7.03;4.00;;;32.00;1.00;;;;;;4992236;28;20182;-75
2023/09/14 08:45:26;;;;;;;7.28;3.63;;;32.50;1.00;;;;;;4992157;28;20255;-73
2023/09/14 08:47:53;;;;;;;6.45;3.90;;;32.80;1.00;;;;;;4992317;28;20548;-73
2023/09/14 08:50:20;;;;;;;6.13;4.00;;;32.90;1.00;;;;;;4992679;28;20356;-76
2023/09/14 08:52:46;;;;;;;7.85;3.50;;;33.00;1.00;;;;;;4992376;28;20202;-75
2023/09/14 08:55:12;;;;;;;6.40;4.20;;;32.40;1.00;;;;;;4991946;28;20206;-75
2023/09/14 08:57:40;;;;;;;6.35;3.80;;;32.50;1.00;;;;;;4992089;28;20567;-75
2023/09/14 09:00:14;;;;;;;5.68;3.50;;;32.40;1.00;;;;;;4992004;28;20286;-77
2023/09/14 09:02:43;;;;;;;5.32;3.03;;;32.50;1.00;;;;;;4956346;28;20186;-75
2023/09/14 09:05:14;;;;;;;4.60;3.53;;;33.00;1.00;;;;;;4990443;28;20226;-74
2023/09/14 09:07:40;;;;;;;8.80;3.50;;;33.60;1.00;;;;;;4991961;28;20194;-75
2023/09/14 09:10:10;;;;;;;4.90;3.10;;;34.20;1.00;;;;;;4991561;28;20266;-75
2023/09/14 09:12:36;;;;;;;5.82;3.10;;;34.80;1.00;;;;;;4991976;28;20244;-79
2023/09/14 09:15:02;;;;;;;5.78;3.35;;;35.20;1.00;;;;;;4991248;28;20214;-75
2023/09/14 09:17:40;;;;;;;5.03;3.45;;;35.70;1.00;;;;;;4991939;28;20199;-77
2023/09/14 09:20:14;;;;;;;4.78;3.00;;;35.90;1.00;;;;;;4991828;28;20596;-75
2023/09/14 09:22:43;;;;;;;6.63;3.00;;;35.60;1.00;;;;;;4991877;28;20181;-78
2023/09/14 09:25:10;;;;;;;4.45;2.70;;;35.60;1.00;;;;;;4991132;28;20353;-76
2023/09/14 09:27:38;;;;;;;3.80;2.70;;;35.80;1.00;;;;;;4991689;28;20589;-75
2023/09/14 09:30:04;;;;;;;4.80;2.83;;;35.70;1.00;;;;;;4991959;28;20662;-76
2023/09/14 09:32:30;;;;;;;4.30;3.30;;;35.80;1.00;;;;;;4992034;28;20193;-76
2023/09/14 09:34:56;;;;;;;5.97;2.85;;;35.90;1.00;;;;;;4973401;28;20203;-74
2023/09/14 09:37:24;;;;;;;5.75;3.20;;;36.10;1.00;;;;;;4991927;28;20206;-75
2023/09/14 09:39:51;;;;;;;5.95;3.47;;;35.90;1.00;;;;;;4991701;28;20179;-76
2023/09/14 09:42:19;;;;;;;7.95;2.90;;;36.30;1.00;;;;;;4991244;28;20181;-75
2023/09/14 09:44:45;;;;;;;7.55;3.40;;;36.10;1.00;;;;;;4991242;28;20240;-75
2023/09/14 09:47:12;;;;;;;8.40;3.28;;;35.70;1.00;;;;;;4991149;28;20189;-75
2023/09/14 09:49:39;;;;;;;5.72;3.70;;;36.00;1.00;;;;;;4991559;28;20217;-75
2023/09/14 09:52:10;;;;;;;7.15;3.50;;;35.80;1.00;;;;;;4990834;28;20186;-76
2023/09/14 09:54:36;;;;;;;5.28;3.30;;;35.90;1.00;;;;;;4991029;28;20211;-76
2023/09/14 09:57:04;;;;;;;6.13;2.90;;;35.90;1.00;;;;;;4990851;28;20179;-76
2023/09/14 09:59:30;;;;;;;4.55;2.90;;;36.40;1.00;;;;;;4991418;28;20649;-75
2023/09/14 10:01:56;;;;;;;4.95;3.40;;;36.50;1.00;;;;;;4986308;28;20262;-74
2023/09/14 10:04:28;;;;;;;4.65;3.20;;;36.50;1.00;;;;;;4982820;28;20610;-75
2023/09/14 10:06:55;;;;;;;9.85;3.40;;;36.60;1.00;;;;;;4991308;28;20257;-74
2023/09/14 10:09:22;;;;;;;4.35;2.80;;;37.40;1.00;;;;;;4990818;28;20185;-76
2023/09/14 10:11:50;;;;;;;6.13;3.40;;;37.10;1.00;;;;;;4991002;28;20182;-75
2023/09/14 10:14:20;;;;;;;4.45;2.90;;;38.00;1.00;;;;;;4972973;28;20186;-76
2023/09/14 10:16:49;;;;;;;7.40;3.25;;;37.90;1.00;;;;;;4990895;28;20664;-75
2023/09/14 10:19:15;;;;;;;5.03;3.30;;;38.10;1.00;;;;;;4989941;28;20438;-77
2023/09/14 10:21:42;;;;;;;7.95;2.90;;;37.40;1.00;;;;;;4990894;28;20256;-75
2023/09/14 10:24:11;;;;;;;4.35;2.80;;;37.90;1.00;;;;;;4990520;28;20205;-77
2023/09/14 10:26:37;;;;;;;6.65;2.90;;;37.90;1.00;;;;;;4990787;28;20253;-76
2023/09/14 10:29:08;;;;;;;5.53;3.20;;;38.00;1.00;;;;;;4990387;28;20615;-76
2023/09/14 10:31:35;;;;;;;5.18;3.22;;;38.50;1.00;;;;;;4990716;28;20281;-76
2023/09/14 10:34:01;;;;;;;15.02;3.15;;;39.00;1.00;;;;;;4989954;28;20254;-75
2023/09/14 10:36:30;;;;;;;5.28;2.65;;;39.80;1.00;;;;;;4990497;28;20214;-75
2023/09/14 10:38:58;;;;;;;4.18;2.70;;;38.90;1.00;;;;;;4990726;28;20202;-74
2023/09/14 10:41:24;;;;;;;4.00;2.50;;;39.20;1.00;;;;;;4990262;28;20277;-77
2023/09/14 10:43:49;;;;;;;4.93;3.00;;;39.80;1.00;;;;;;4990688;28;20713;-76
2023/09/14 10:46:21;;;;;;;3.75;2.60;;;40.60;1.00;;;;;;4989717;28;20336;-75
2023/09/14 10:48:47;;;;;;;5.25;2.70;;;40.20;1.00;;;;;;4990635;28;20183;-76
2023/09/14 10:51:13;;;;;;;3.53;2.40;;;39.80;1.00;;;;;;4989730;28;20174;-75
2023/09/14 10:53:41;;;;;;;4.88;2.72;;;39.20;1.00;;;;;;4990410;28;20195;-75
2023/09/14 10:56:22;;;;;;;4.28;2.65;;;39.90;1.00;;;;;;4989970;28;20205;-76
2023/09/14 10:58:52;;;;;;;4.25;2.35;;;39.70;1.00;;;;;;4990401;28;20264;-75
2023/09/14 11:01:25;;;;;;;10.20;3.28;;;39.90;1.00;;;;;;4990012;28;20254;-76
2023/09/14 11:04:11;;;;;;;4.75;3.08;;;39.50;1.00;;;;;;4985347;28;20194;-74
2023/09/14 11:06:51;;;;;;;4.57;2.55;;;38.80;1.00;;;;;;4972771;28;20655;-75
2023/09/14 11:09:18;;;;;;;5.18;2.97;;;38.60;1.00;;;;;;4989936;28;20197;-77
2023/09/14 11:11:45;;;;;;;8.45;3.00;;;38.80;1.00;;;;;;4990209;28;20190;-76
2023/09/14 11:14:17;;;;;;;3.42;2.30;;;39.30;1.00;;;;;;4989629;28;20209;-75
2023/09/14 11:16:52;;;;;;;3.60;2.33;;;39.30;1.00;;;;;;4989888;28;20225;-76
2023/09/14 11:19:30;;;;;;;6.03;2.65;;;39.60;1.00;;;;;;4989509;28;20616;-75
2023/09/14 11:22:05;;;;;;;4.22;2.25;;;40.40;1.00;;;;;;4990106;28;20187;-74
2023/09/14 11:24:35;;;;;;;6.32;3.08;;;42.00;1.00;;;;;;4982097;28;20198;-75
2023/09/14 11:27:00;;;;;;;4.97;2.30;;;41.80;1.00;;;;;;4990338;28;20202;-78
2023/09/14 11:29:31;;;;;;;5.47;2.63;;;41.90;1.00;;;;;;4989954;28;20209;-77
2023/09/14 11:32:04;;;;;;;4.40;2.28;;;41.60;1.00;;;;;;4991604;28;20190;-77
2023/09/14 11:34:31;;;;;;;4.32;2.50;;;42.30;1.00;;;;;;4993203;28;20664;-76
2023/09/14 11:37:00;;;;;;;3.63;2.15;;;42.30;1.00;;;;;;4994026;28;20277;-74
2023/09/14 11:39:28;;;;;;;3.92;2.40;;;42.40;1.00;;;;;;4993668;28;20236;-77
2023/09/14 11:41:59;;;;;;;5.75;2.67;;;42.30;1.00;;;;;;4993758;28;20171;-77
2023/09/14 11:44:28;;;;;;;3.92;2.15;;;41.60;1.00;;;;;;4993136;28;20234;-76
2023/09/14 11:46:56;;;;;;;4.13;1.90;;;41.50;1.00;;;;;;4993755;28;20212;-76
2023/09/14 11:49:26;;;;;;;3.10;2.20;;;39.80;1.00;;;;;;4993457;28;20237;-74
2023/09/14 11:51:53;;;;;;;4.35;2.55;;;39.80;1.00;;;;;;4993688;28;20270;-75
2023/09/14 11:54:19;;;;;;;4.15;2.50;;;38.80;1.00;;;;;;4992956;28;20190;-75
2023/09/14 11:56:45;;;;;;;3.58;2.15;;;38.80;1.00;;;;;;4993459;28;20676;-75
2023/09/14 11:59:11;;;;;;;3.90;2.30;;;39.50;1.00;;;;;;4993109;28;20198;-77
2023/09/14 12:01:37;;;;;;;4.65;2.47;;;39.60;1.00;;;;;;4973769;28;20324;-74
2023/09/14 12:04:05;;;;;;;3.50;2.20;;;40.30;1.00;;;;;;4989144;28;20189;-75
2023/09/14 12:06:32;;;;;;;3.40;1.90;;;40.30;1.00;;;;;;4993441;28;20175;-75
2023/09/14 12:08:58;;;;;;;5.60;2.20;;;40.40;1.00;;;;;;4993464;28;20238;-75
2023/09/14 12:11:35;;;;;;;4.70;2.10;;;40.80;1.00;;;;;;4992942;28;20194;-76
2023/09/14 12:14:01;;;;;;;4.47;2.17;;;41.20;1.00;;;;;;4993195;28;20182;-75
2023/09/14 12:16:29;;;;;;;4.63;2.13;;;40.70;1.00;;;;;;4992702;28;20585;-74
2023/09/14 12:18:55;;;;;;;4.35;2.15;;;40.60;1.00;;;;;;4993401;28;20217;-74
2023/09/14 12:21:22;;;;;;;3.83;2.00;;;41.10;1.00;;;;;;4992876;28;20178;-76
2023/09/14 12:23:50;;;;;;;5.90;2.67;;;40.30;1.00;;;;;;4993034;28;20186;-75
2023/09/14 12:26:18;;;;;;;5.00;2.30;;;39.30;1.00;;;;;;4991998;28;20699;-76
2023/09/14 12:28:54;;;;;;;8.82;2.50;;;38.50;1.00;;;;;;4993084;28;20652;-75
2023/09/14 12:31:20;;;;;;;6.28;2.40;;;38.00;1.00;;;;;;4975077;28;20182;-77
2023/09/14 12:33:47;;;;;;;4.60;2.40;;;38.20;1.00;;;;;;4992624;28;20245;-75
2023/09/14 12:36:12;;;;;;;5.55;2.70;;;38.00;1.00;;;;;;4992171;28;20210;-73
2023/09/14 12:38:39;;;;;;;5.15;2.42;;;38.10;1.00;;;;;;4992726;28;20217;-75
2023/09/14 12:41:05;;;;;;;3.20;2.00;;;38.90;1.00;;;;;;4993007;28;20210;-75
2023/09/14 12:43:32;;;;;;;10.07;2.40;;;39.60;1.00;;;;;;4992130;28;20179;-75
2023/09/14 12:45:58;;;;;;;4.88;2.28;;;40.50;1.00;;;;;;4992402;28;20213;-75
2023/09/14 12:48:28;;;;;;;5.97;2.45;;;39.70;1.00;;;;;;4992439;28;20183;-75
2023/09/14 12:50:56;;;;;;;5.53;2.30;;;40.30;1.00;;;;;;4993033;28;20206;-76
2023/09/14 12:53:23;;;;;;;6.10;2.70;;;39.70;1.00;;;;;;4991974;28;20178;-76